createdAt,value
2019-04-11T00:01:04.325Z,73.10
2019-04-11T00:03:33.514Z,73.60
2019-04-11T00:06:03.292Z,74.60
2019-04-11T00:08:32.326Z,75.30
2019-04-11T00:11:01.775Z,77.10
2019-04-11T00:13:31.853Z,77.20
2019-04-11T00:16:01.302Z,78.30
2019-04-11T00:18:30.378Z,78.20
2019-04-11T00:21:00.319Z,78.50
2019-04-11T00:23:28.723Z,78.00
2019-04-11T00:25:58.037Z,79.60
2019-04-11T00:28:27.763Z,79.20
2019-04-11T00:30:56.672Z,79.20
2019-04-11T00:33:26.434Z,79.80
2019-04-11T00:35:55.660Z,79.60
2019-04-11T00:38:25.862Z,79.30
2019-04-11T00:40:54.497Z,79.60
2019-04-11T00:43:31.674Z,80.60
2019-04-11T00:45:53.985Z,80.60
2019-04-11T00:48:22.513Z,81.10
2019-04-11T00:50:51.722Z,81.30
2019-04-11T00:53:20.473Z,82.20
2019-04-11T00:55:48.993Z,81.30
2019-04-11T00:58:17.406Z,81.60
2019-04-11T01:00:45.768Z,81.40
2019-04-11T01:03:14.205Z,81.90
2019-04-11T01:05:42.677Z,81.60
2019-04-11T01:08:11.472Z,81.10
2019-04-11T01:10:39.971Z,80.20
2019-04-11T01:13:09.210Z,80.40
2019-04-11T01:15:38.650Z,79.60
2019-04-11T01:18:06.686Z,79.20
2019-04-11T01:20:35.529Z,78.60
2019-04-11T01:23:04.794Z,79.10
2019-04-11T01:25:32.706Z,78.40
2019-04-11T01:28:01.258Z,77.70
2019-04-11T01:30:33.925Z,76.90
2019-04-11T01:33:02.534Z,76.20
2019-04-11T01:35:31.123Z,76.40
2019-04-11T01:37:59.879Z,76.70
2019-04-11T01:40:28.282Z,76.00
2019-04-11T01:42:57.648Z,76.90
2019-04-11T01:45:27.570Z,76.40
2019-04-11T01:47:57.725Z,76.40
2019-04-11T01:50:27.778Z,76.50
2019-04-11T01:52:56.174Z,76.60
2019-04-11T01:55:26.256Z,77.10
2019-04-11T01:57:55.895Z,76.50
2019-04-11T02:00:32.321Z,77.10
2019-04-11T02:03:03.231Z,77.00
2019-04-11T02:05:32.877Z,77.40
2019-04-11T02:08:01.333Z,76.80
2019-04-11T02:10:29.742Z,76.90
2019-04-11T02:12:58.186Z,77.20
2019-04-11T02:15:28.280Z,75.40
2019-04-11T02:17:57.288Z,74.00
2019-04-11T02:20:27.049Z,74.70
2019-04-11T02:23:13.041Z,75.50
2019-04-11T02:25:47.063Z,75.50
2019-04-11T02:28:17.238Z,74.30
2019-04-11T02:30:48.390Z,73.80
2019-04-11T02:33:18.371Z,74.60
2019-04-11T02:35:49.153Z,74.70
2019-04-11T02:38:18.758Z,74.60
2019-04-11T02:40:47.996Z,74.70
2019-04-11T02:43:17.745Z,75.50
2019-04-11T02:46:00.182Z,77.70
2019-04-11T02:48:18.426Z,79.60
2019-04-11T02:50:47.939Z,80.50
2019-04-11T02:53:16.986Z,81.90
2019-04-11T02:55:46.571Z,82.50
2019-04-11T02:58:14.736Z,83.00
2019-04-11T03:00:45.032Z,83.90
2019-04-11T03:03:14.981Z,84.40
2019-04-11T03:05:44.132Z,85.20
2019-04-11T03:08:17.967Z,85.80
2019-04-11T03:10:45.505Z,86.30
2019-04-11T03:13:14.333Z,86.50
2019-04-11T03:15:56.920Z,87.00
2019-04-11T03:18:34.417Z,86.80
2019-04-11T03:20:52.315Z,87.00
2019-04-11T03:23:16.479Z,86.80
2019-04-11T03:25:44.719Z,85.40
2019-04-11T03:28:18.361Z,86.00
2019-04-11T03:31:03.967Z,85.60
2019-04-11T03:34:03.718Z,85.90
2019-04-11T03:38:38.142Z,85.70
2019-04-11T03:41:00.346Z,86.40
2019-04-11T03:43:28.176Z,85.60
2019-04-11T03:46:04.031Z,85.40
2019-04-11T03:48:29.307Z,87.20
2019-04-11T03:50:44.852Z,87.70
2019-04-11T03:53:14.512Z,90.10
2019-04-11T03:55:43.411Z,90.60
2019-04-11T03:58:13.210Z,90.70
2019-04-11T04:00:44.400Z,90.50
2019-04-11T04:03:14.171Z,91.20
2019-04-11T04:05:44.389Z,91.40
2019-04-11T04:08:12.988Z,91.60
2019-04-11T04:10:43.652Z,91.70
2019-04-11T04:13:16.963Z,90.20
2019-04-11T04:16:08.125Z,89.40
2019-04-11T04:18:31.761Z,87.20
2019-04-11T04:21:04.148Z,87.00
2019-04-11T04:23:35.796Z,87.60
2019-04-11T04:26:06.208Z,87.40
2019-04-11T04:28:35.700Z,88.10
2019-04-11T04:31:04.710Z,87.60
2019-04-11T04:33:35.424Z,88.10
2019-04-11T04:36:04.861Z,88.10
2019-04-11T04:38:33.830Z,87.80
2019-04-11T04:41:16.317Z,89.60
2019-04-11T04:43:33.980Z,88.40
2019-04-11T04:46:17.258Z,90.30
2019-04-11T04:48:34.372Z,89.10
2019-04-11T04:51:07.555Z,88.50
2019-04-11T04:53:33.722Z,86.50
2019-04-11T04:56:03.199Z,87.20
2019-04-11T04:58:32.337Z,87.80
2019-04-11T05:01:03.710Z,87.90
2019-04-11T05:03:32.118Z,87.60
2019-04-11T05:06:03.828Z,88.20
2019-04-11T05:08:32.511Z,87.90
2019-04-11T05:11:02.221Z,87.90
2019-04-11T05:13:32.198Z,87.60
2019-04-11T05:16:08.600Z,88.30
2019-04-11T05:18:32.034Z,87.60
2019-04-11T05:21:01.137Z,87.20
2019-04-11T05:23:29.823Z,87.30
2019-04-11T05:25:59.975Z,85.30
2019-04-11T05:28:29.722Z,86.10
2019-04-11T05:30:58.400Z,86.30
2019-04-11T05:33:27.388Z,87.20
2019-04-11T05:35:56.375Z,85.40
2019-04-11T05:38:25.252Z,84.40
2019-04-11T05:40:54.542Z,84.40
2019-04-11T05:43:28.117Z,81.40
2019-04-11T05:45:54.377Z,78.80
2019-04-11T05:48:38.944Z,80.70
2019-04-11T05:51:07.463Z,80.80
2019-04-11T05:53:36.993Z,79.00
2019-04-11T05:56:07.189Z,78.40
2019-04-11T05:58:46.770Z,78.70
2019-04-11T06:01:30.910Z,77.80
2019-04-11T06:04:07.897Z,75.70
2019-04-11T06:06:40.138Z,75.20
2019-04-11T06:09:15.761Z,75.40
2019-04-11T06:11:45.287Z,75.90
2019-04-11T06:14:15.430Z,74.90
2019-04-11T06:16:50.264Z,74.10
2019-04-11T06:19:17.250Z,73.20
2019-04-11T06:21:48.384Z,73.60
2019-04-11T06:24:34.881Z,74.20
2019-04-11T06:27:17.071Z,73.10
2019-04-11T06:30:03.670Z,74.60
2019-04-11T06:32:43.693Z,74.40
2019-04-11T06:35:13.950Z,72.90
2019-04-11T06:38:00.725Z,72.10
2019-04-11T06:40:42.432Z,71.50
2019-04-11T06:43:18.570Z,72.40
2019-04-11T06:46:05.010Z,71.60
2019-04-11T06:48:38.196Z,71.40
2019-04-11T06:51:08.240Z,72.10
2019-04-11T06:53:38.303Z,72.70
2019-04-11T06:56:08.346Z,70.90
2019-04-11T06:58:39.398Z,70.10
2019-04-11T07:01:09.824Z,70.90
2019-04-11T07:03:40.601Z,71.20
2019-04-11T07:06:13.340Z,70.00
2019-04-11T07:08:59.882Z,71.30
2019-04-11T07:11:42.667Z,70.00
2019-04-11T07:14:29.227Z,69.80
2019-04-11T07:17:15.553Z,69.60
2019-04-11T07:20:04.495Z,68.80
2019-04-11T07:22:51.222Z,68.90
2019-04-11T07:25:27.119Z,68.90
2019-04-11T07:28:09.992Z,68.50
2019-04-11T07:30:56.422Z,67.70
2019-04-11T07:33:33.125Z,67.50
2019-04-11T07:36:20.992Z,68.80
2019-04-11T07:38:52.342Z,67.50
2019-04-11T07:41:38.924Z,67.90
2019-04-11T07:44:13.900Z,67.50
2019-04-11T07:47:13.591Z,66.70
2019-04-11T07:49:35.203Z,67.40
2019-04-11T07:52:05.313Z,66.10
2019-04-11T07:54:34.753Z,66.90
2019-04-11T07:57:22.943Z,65.80
2019-04-11T08:00:02.077Z,65.60
2019-04-11T08:02:33.256Z,66.20
2019-04-11T08:05:04.472Z,66.00
2019-04-11T08:07:34.627Z,66.10
2019-04-11T08:10:05.900Z,66.60
2019-04-11T08:12:35.448Z,66.50
2019-04-11T08:15:25.863Z,65.60
2019-04-11T08:17:54.418Z,65.20
2019-04-11T08:20:41.586Z,66.40
2019-04-11T08:23:09.997Z,65.80
2019-04-11T08:25:45.525Z,66.30
2019-04-11T08:28:14.177Z,64.90
2019-04-11T08:31:03.382Z,65.50
2019-04-11T08:33:32.885Z,64.90
2019-04-11T08:36:03.101Z,65.20
2019-04-11T08:38:32.748Z,65.40
2019-04-11T08:41:09.376Z,64.90
2019-04-11T08:43:39.274Z,65.60
2019-04-11T08:46:15.245Z,64.70
2019-04-11T08:48:48.968Z,64.80
2019-04-11T08:51:19.301Z,63.80
2019-04-11T08:54:05.507Z,62.00
2019-04-11T08:56:34.842Z,62.60
2019-04-11T08:59:11.395Z,62.00
2019-04-11T09:01:40.285Z,61.10
2019-04-11T09:04:15.188Z,60.30
2019-04-11T09:06:43.603Z,60.10
2019-04-11T09:09:29.894Z,60.10
2019-04-11T09:12:00.440Z,58.60
2019-04-11T09:14:33.293Z,58.60
2019-04-11T09:17:12.352Z,58.60
2019-04-11T09:19:43.110Z,58.10
2019-04-11T09:22:20.467Z,58.50
2019-04-11T09:24:50.638Z,59.80
2019-04-11T09:27:37.167Z,59.20
2019-04-11T09:30:12.763Z,59.50
2019-04-11T09:32:56.709Z,60.70
2019-04-11T09:35:44.913Z,60.30
2019-04-11T09:38:20.857Z,59.40
2019-04-11T09:41:06.114Z,59.10
2019-04-11T09:43:36.261Z,59.00
2019-04-11T09:46:24.004Z,58.10
2019-04-11T09:49:00.438Z,58.00
2019-04-11T09:51:36.576Z,58.70
2019-04-11T09:54:15.954Z,58.70
2019-04-11T09:56:56.013Z,58.60
2019-04-11T09:59:27.203Z,54.40
2019-04-11T10:02:14.535Z,48.20
2019-04-11T10:04:44.693Z,42.00
2019-04-11T10:07:27.900Z,39.60
2019-04-11T10:10:04.576Z,40.50
2019-04-11T10:12:40.766Z,42.10
2019-04-11T10:15:09.433Z,43.20
2019-04-11T10:17:42.478Z,46.70
2019-04-11T10:20:12.915Z,45.40
2019-04-11T10:22:52.248Z,42.60
2019-04-11T10:25:23.294Z,46.90
2019-04-11T10:27:53.556Z,45.60
2019-04-11T10:30:39.968Z,49.10
2019-04-11T10:33:25.032Z,50.50
2019-04-11T10:36:11.076Z,48.40
2019-04-11T10:38:40.566Z,48.70
2019-04-11T10:41:25.859Z,47.70
2019-04-11T10:43:54.260Z,46.80
2019-04-11T10:46:25.156Z,47.70
2019-04-11T10:49:13.620Z,49.60
2019-04-11T10:51:47.623Z,50.90
2019-04-11T10:54:16.119Z,50.00
2019-04-11T10:57:03.458Z,45.70
2019-04-11T10:59:34.487Z,46.90
2019-04-11T11:02:17.567Z,46.90
2019-04-11T11:04:48.527Z,48.10
2019-04-11T11:07:18.356Z,45.60
2019-04-11T11:09:58.534Z,47.20
2019-04-11T11:12:31.484Z,46.40
2019-04-11T11:15:11.458Z,46.80
2019-04-11T11:18:20.506Z,45.20
2019-04-11T11:20:41.540Z,46.90
2019-04-11T11:23:25.432Z,47.40
2019-04-11T11:25:56.403Z,46.30
2019-04-11T11:28:26.765Z,47.20
2019-04-11T11:31:03.234Z,47.20
2019-04-11T11:33:34.113Z,45.90
2019-04-11T11:36:21.348Z,46.50
2019-04-11T11:39:06.788Z,48.00
2019-04-11T11:41:53.004Z,48.50
2019-04-11T11:44:23.041Z,47.00
2019-04-11T11:47:09.931Z,48.00
2019-04-11T11:49:48.707Z,50.00
2019-04-11T11:52:31.955Z,51.50
2019-04-11T11:54:57.161Z,52.60
2019-04-11T11:57:27.200Z,53.00
2019-04-11T12:00:00.796Z,54.10
2019-04-11T12:02:34.757Z,52.20
2019-04-11T12:05:12.934Z,51.40
2019-04-11T12:07:40.939Z,52.90
2019-04-11T12:10:28.043Z,53.50
2019-04-11T12:13:03.290Z,54.30
2019-04-11T12:15:46.621Z,52.80
2019-04-11T12:18:18.465Z,52.80
2019-04-11T12:21:06.566Z,53.30
2019-04-11T12:24:00.782Z,53.60
2019-04-11T12:26:22.143Z,53.40
2019-04-11T12:28:52.303Z,52.90
2019-04-11T12:31:23.868Z,51.50
2019-04-11T12:34:10.622Z,51.50
2019-04-11T12:36:47.155Z,50.70
2019-04-11T12:39:24.298Z,50.60
2019-04-11T12:41:52.752Z,50.30
2019-04-11T12:44:31.811Z,51.10
2019-04-11T12:47:01.846Z,50.70
2019-04-11T12:49:52.475Z,51.20
2019-04-11T12:52:15.962Z,51.20
2019-04-11T12:54:46.243Z,50.30
2019-04-11T12:57:25.383Z,51.30
2019-04-11T13:00:07.519Z,50.60
2019-04-11T13:02:53.641Z,51.30
2019-04-11T13:05:23.657Z,51.70
2019-04-11T13:08:10.341Z,51.90
2019-04-11T13:10:40.550Z,51.70
2019-04-11T13:13:22.642Z,53.40
2019-04-11T13:15:54.534Z,52.90
2019-04-11T13:18:40.649Z,53.60
2019-04-11T13:21:13.489Z,53.60
2019-04-11T13:23:55.939Z,53.80
2019-04-11T13:26:37.808Z,53.00
2019-04-11T13:29:13.582Z,52.80
2019-04-11T13:31:55.614Z,52.30
2019-04-11T13:34:25.661Z,52.60
2019-04-11T13:37:11.847Z,53.50
2019-04-11T13:39:40.379Z,53.80
2019-04-11T13:42:26.948Z,54.70
2019-04-11T13:44:55.466Z,55.90
2019-04-11T13:47:40.522Z,55.90
2019-04-11T13:50:16.370Z,55.30
2019-04-11T13:52:57.160Z,53.90
2019-04-11T13:55:25.575Z,52.90
2019-04-11T13:58:11.909Z,53.40
2019-04-11T14:00:42.102Z,54.60
2019-04-11T14:03:20.959Z,54.30
2019-04-11T14:05:50.242Z,54.00
2019-04-11T14:08:29.515Z,53.50
2019-04-11T14:11:04.545Z,54.20
2019-04-11T14:13:44.049Z,54.70
2019-04-11T14:16:16.743Z,54.80
2019-04-11T14:19:03.371Z,56.10
2019-04-11T14:21:32.870Z,56.70
2019-04-11T14:24:18.205Z,55.50
2019-04-11T14:26:48.249Z,55.30
2019-04-11T14:29:18.392Z,55.60
2019-04-11T14:31:48.421Z,55.50
2019-04-11T14:34:30.702Z,55.40
2019-04-11T14:37:12.833Z,54.70
2019-04-11T14:39:42.890Z,53.90
2019-04-11T14:42:18.788Z,54.20
2019-04-11T14:44:48.866Z,54.50
2019-04-11T14:47:18.927Z,54.10
2019-04-11T14:49:49.002Z,54.50
2019-04-11T14:52:19.054Z,54.80
2019-04-11T14:54:49.293Z,54.60
2019-04-11T14:57:24.973Z,55.60
2019-04-11T14:59:55.025Z,55.90
2019-04-11T15:02:25.115Z,56.20
2019-04-11T15:05:00.750Z,56.00
2019-04-11T15:07:30.729Z,56.60
2019-04-11T15:10:09.862Z,55.90
2019-04-11T15:12:39.915Z,56.20
2019-04-11T15:15:28.063Z,57.80
2019-04-11T15:17:58.101Z,58.40
2019-04-11T15:20:33.870Z,58.50
2019-04-11T15:23:08.698Z,58.90
2019-04-11T15:25:44.572Z,59.40
2019-04-11T15:28:17.177Z,59.00
2019-04-11T15:30:56.526Z,58.80
2019-04-11T15:33:38.193Z,58.80
2019-04-11T15:36:08.293Z,59.60
2019-04-11T15:38:38.367Z,59.30
2019-04-11T15:41:08.630Z,59.00
2019-04-11T15:43:44.601Z,58.40
2019-04-11T15:46:17.719Z,57.90
2019-04-11T15:49:04.500Z,58.50
2019-04-11T15:51:36.900Z,58.00
2019-04-11T15:54:15.767Z,57.90
2019-04-11T15:56:55.215Z,58.40
2019-04-11T15:59:30.989Z,58.40
2019-04-11T16:02:17.368Z,57.90
2019-04-11T16:04:47.468Z,58.30
2019-04-11T16:07:17.558Z,59.00
2019-04-11T16:09:53.480Z,58.90
2019-04-11T16:12:29.301Z,58.70
2019-04-11T16:15:16.525Z,58.60
2019-04-11T16:18:02.682Z,58.60
2019-04-11T16:20:31.049Z,58.80
2019-04-11T16:23:01.086Z,59.20
2019-04-11T16:25:29.897Z,59.50
2019-04-11T16:28:09.034Z,59.90
2019-04-11T16:30:39.801Z,59.80
2019-04-11T16:33:11.961Z,59.60
2019-04-11T16:35:45.464Z,60.80
2019-04-11T16:38:18.846Z,59.90
2019-04-11T16:41:03.363Z,59.90
2019-04-11T16:43:32.141Z,60.00
2019-04-11T16:46:14.318Z,60.60
2019-04-11T16:48:42.681Z,60.10
2019-04-11T16:51:11.128Z,60.80
2019-04-11T16:53:39.649Z,61.20
2019-04-11T16:56:08.050Z,61.50
2019-04-11T16:58:36.429Z,61.30
2019-04-11T17:01:06.437Z,61.60
2019-04-11T17:03:34.918Z,60.90
2019-04-11T17:06:21.230Z,60.80
2019-04-11T17:08:51.681Z,60.40
2019-04-11T17:11:20.252Z,60.90
2019-04-11T17:13:48.797Z,60.60
2019-04-11T17:16:17.260Z,60.00
2019-04-11T17:18:45.643Z,60.50
2019-04-11T17:21:14.026Z,60.70
2019-04-11T17:23:42.437Z,60.40
2019-04-11T17:26:10.870Z,60.70
2019-04-11T17:28:39.404Z,61.00
2019-04-11T17:31:07.860Z,61.10
2019-04-11T17:33:36.295Z,61.40
2019-04-11T17:36:04.738Z,61.70
2019-04-11T17:38:36.957Z,62.80
2019-04-11T17:41:03.157Z,62.20
2019-04-11T17:43:31.594Z,62.10
2019-04-11T17:45:59.996Z,62.10
2019-04-11T17:48:28.393Z,62.00
2019-04-11T17:50:57.010Z,62.40
2019-04-11T17:53:25.511Z,62.40
2019-04-11T17:55:54.252Z,62.60
2019-04-11T17:58:22.626Z,62.60
2019-04-11T18:00:53.689Z,63.00
2019-04-11T18:03:22.147Z,63.40
2019-04-11T18:05:50.551Z,63.70
2019-04-11T18:08:20.214Z,63.80
2019-04-11T18:10:49.001Z,64.30
2019-04-11T18:13:17.414Z,64.30
2019-04-11T18:15:45.809Z,64.10
2019-04-11T18:18:14.315Z,64.20
2019-04-11T18:20:42.714Z,64.30
2019-04-11T18:23:12.139Z,64.70
2019-04-11T18:25:40.612Z,64.60
2019-04-11T18:28:08.968Z,64.20
2019-04-11T18:30:37.418Z,64.30
2019-04-11T18:33:05.813Z,64.20
2019-04-11T18:35:34.201Z,64.40
2019-04-11T18:38:02.883Z,64.40
2019-04-11T18:40:31.302Z,64.40
2019-04-11T18:42:59.704Z,63.80
2019-04-11T18:45:29.737Z,63.80
2019-04-11T18:47:58.100Z,63.60
2019-04-11T18:50:28.690Z,62.60
2019-04-11T18:52:59.173Z,62.30
2019-04-11T18:55:26.684Z,62.90
2019-04-11T18:57:55.057Z,62.60
2019-04-11T19:00:24.170Z,63.30
2019-04-11T19:02:52.575Z,63.00
2019-04-11T19:05:28.500Z,63.10
2019-04-11T19:07:51.111Z,63.30
2019-04-11T19:10:19.514Z,62.70
2019-04-11T19:12:47.913Z,62.60
2019-04-11T19:15:17.071Z,62.60
2019-04-11T19:17:46.782Z,62.60
2019-04-11T19:20:14.434Z,63.10
2019-04-11T19:22:42.866Z,63.80
2019-04-11T19:25:11.972Z,64.10
2019-04-11T19:27:41.006Z,64.90
2019-04-11T19:30:09.369Z,65.60
2019-04-11T19:32:37.785Z,66.10
2019-04-11T19:35:06.186Z,67.20
2019-04-11T19:37:34.588Z,67.70
2019-04-11T19:40:03.010Z,69.00
2019-04-11T19:42:31.438Z,70.10
2019-04-11T19:45:02.753Z,70.30
2019-04-11T19:47:29.913Z,70.80
2019-04-11T19:49:58.810Z,71.70
2019-04-11T19:52:26.985Z,72.60
2019-04-11T19:54:57.035Z,73.40
2019-04-11T19:57:25.486Z,74.40
2019-04-11T19:59:54.022Z,75.40
2019-04-11T20:02:23.564Z,76.20
2019-04-11T20:04:52.520Z,76.20
2019-04-11T20:07:20.901Z,76.00
2019-04-11T20:09:49.318Z,75.60
2019-04-11T20:12:17.766Z,75.30
2019-04-11T20:14:46.167Z,75.90
2019-04-11T20:17:18.832Z,76.10
2019-04-11T20:19:44.600Z,75.80
2019-04-11T20:22:13.010Z,76.40
2019-04-11T20:24:45.906Z,77.00
2019-04-11T20:27:11.474Z,76.80
2019-04-11T20:29:39.853Z,76.60
2019-04-11T20:32:08.270Z,77.20
2019-04-11T20:34:38.604Z,77.10
2019-04-11T20:37:06.862Z,76.40
2019-04-11T20:39:35.287Z,75.90
2019-04-11T20:42:03.686Z,75.70
2019-04-11T20:44:32.086Z,76.50
2019-04-11T20:47:01.112Z,76.70
2019-04-11T20:49:29.709Z,76.10
2019-04-11T20:51:58.126Z,75.80
2019-04-11T20:54:26.551Z,75.70
2019-04-11T20:56:55.038Z,75.90
2019-04-11T20:59:33.959Z,76.10
2019-04-11T21:01:53.713Z,76.90
2019-04-11T21:04:23.331Z,77.70
2019-04-11T21:06:51.740Z,77.30
2019-04-11T21:09:20.115Z,77.90
2019-04-11T21:11:48.556Z,77.20
2019-04-11T21:14:16.953Z,77.60
2019-04-11T21:16:45.389Z,77.20
2019-04-11T21:19:13.761Z,76.80
2019-04-11T21:21:42.176Z,76.00
2019-04-11T21:24:10.575Z,75.10
2019-04-11T21:26:38.981Z,73.70
2019-04-11T21:29:07.353Z,72.50
2019-04-11T21:31:35.832Z,71.60
2019-04-11T21:34:04.167Z,70.80
2019-04-11T21:36:32.579Z,69.10
2019-04-11T21:39:03.556Z,69.40
2019-04-11T21:41:31.002Z,66.80
2019-04-11T21:43:59.536Z,67.70
2019-04-11T21:46:27.932Z,65.80
2019-04-11T21:48:56.369Z,66.50
2019-04-11T21:51:24.757Z,66.00
2019-04-11T21:53:53.154Z,64.20
2019-04-11T21:56:21.564Z,64.50
2019-04-11T21:58:50.714Z,64.90
2019-04-11T22:01:21.912Z,64.00
2019-04-11T22:03:52.279Z,64.00
2019-04-11T22:06:19.858Z,63.70
2019-04-11T22:08:48.245Z,64.50
2019-04-11T22:11:16.616Z,64.70
2019-04-11T22:13:44.975Z,64.40
2019-04-11T22:16:14.369Z,64.40
2019-04-11T22:18:44.324Z,64.40
2019-04-11T22:21:15.428Z,64.20
2019-04-11T22:23:48.576Z,63.20
2019-04-11T22:26:13.271Z,64.00
2019-04-11T22:28:41.669Z,63.20
2019-04-11T22:31:10.070Z,63.40
2019-04-11T22:33:40.124Z,62.70
2019-04-11T22:36:08.552Z,62.80
2019-04-11T22:38:37.014Z,63.10
2019-04-11T22:41:05.405Z,62.60
2019-04-11T22:43:37.849Z,62.40
2019-04-11T22:46:07.761Z,61.60
2019-04-11T22:48:33.823Z,59.00
2019-04-11T22:51:02.236Z,59.70
2019-04-11T22:53:30.632Z,59.80
2019-04-11T22:55:59.038Z,58.80
2019-04-11T22:58:27.417Z,58.90
2019-04-11T23:00:55.796Z,59.60
2019-04-11T23:03:25.815Z,59.20
2019-04-11T23:05:54.292Z,59.30
2019-04-11T23:08:22.690Z,59.00
2019-04-11T23:10:51.104Z,59.00
2019-04-11T23:13:19.490Z,58.80
2019-04-11T23:15:47.869Z,58.70
2019-04-11T23:18:16.282Z,59.20
2019-04-11T23:20:44.775Z,59.10
2019-04-11T23:23:13.985Z,59.90
2019-04-11T23:25:42.524Z,60.90
2019-04-11T23:28:10.947Z,61.10
2019-04-11T23:30:39.426Z,61.00
2019-04-11T23:33:07.796Z,61.40
2019-04-11T23:35:36.180Z,61.90
2019-04-11T23:38:04.623Z,62.90
2019-04-11T23:40:33.054Z,63.00
2019-04-11T23:43:01.458Z,62.70
2019-04-11T23:45:30.462Z,63.40
2019-04-11T23:47:58.885Z,63.60
2019-04-11T23:50:27.282Z,64.60
2019-04-11T23:52:57.963Z,65.50
2019-04-11T23:55:29.636Z,66.20
2019-04-11T23:57:55.802Z,67.00
